sensor_id;sensor_type;location;lat;lon;timestamp;temperature;humidity
38183;DHT22;23991;52.430;10.586;2024-02-15T00:00:20;10.50;92.00
38183;DHT22;23991;52.430;10.586;2024-02-15T00:02:46;10.50;92.00
38183;DHT22;23991;52.430;10.586;2024-02-15T00:05:12;10.50;92.00
38183;DHT22;23991;52.430;10.586;2024-02-15T00:07:40;10.50;92.00
38183;DHT22;23991;52.430;10.586;2024-02-15T00:10:05;10.60;92.10
38183;DHT22;23991;52.430;10.586;2024-02-15T00:12:31;10.50;92.10
38183;DHT22;23991;52.430;10.586;2024-02-15T00:14:57;10.50;92.10
38183;DHT22;23991;52.430;10.586;2024-02-15T00:17:27;10.60;92.10
38183;DHT22;23991;52.430;10.586;2024-02-15T00:19:54;10.60;92.10
38183;DHT22;23991;52.430;10.586;2024-02-15T00:22:20;10.60;92.10
38183;DHT22;23991;52.430;10.586;2024-02-15T00:24:46;10.60;92.00
38183;DHT22;23991;52.430;10.586;2024-02-15T00:27:16;10.60;92.10
38183;DHT22;23991;52.430;10.586;2024-02-15T00:29:42;10.60;92.10
38183;DHT22;23991;52.430;10.586;2024-02-15T00:32:08;10.60;92.10
38183;DHT22;23991;52.430;10.586;2024-02-15T00:34:36;10.60;92.10
38183;DHT22;23991;52.430;10.586;2024-02-15T00:37:02;10.60;92.10
38183;DHT22;23991;52.430;10.586;2024-02-15T00:39:27;10.60;92.10
38183;DHT22;23991;52.430;10.586;2024-02-15T00:41:53;10.60;92.20
38183;DHT22;23991;52.430;10.586;2024-02-15T00:44:20;10.60;92.20
38183;DHT22;23991;52.430;10.586;2024-02-15T00:46:46;10.60;92.20
38183;DHT22;23991;52.430;10.586;2024-02-15T00:49:13;10.60;92.20
38183;DHT22;23991;52.430;10.586;2024-02-15T00:51:38;10.60;92.20
38183;DHT22;23991;52.430;10.586;2024-02-15T00:54:04;10.60;92.20
38183;DHT22;23991;52.430;10.586;2024-02-15T00:56:29;10.60;92.30
38183;DHT22;23991;52.430;10.586;2024-02-15T00:58:56;10.60;92.30
38183;DHT22;23991;52.430;10.586;2024-02-15T01:01:22;10.60;92.20
38183;DHT22;23991;52.430;10.586;2024-02-15T01:03:47;10.60;92.20
38183;DHT22;23991;52.430;10.586;2024-02-15T01:06:13;10.70;92.30
38183;DHT22;23991;52.430;10.586;2024-02-15T01:08:39;10.70;92.30
38183;DHT22;23991;52.430;10.586;2024-02-15T01:11:04;10.70;92.30
38183;DHT22;23991;52.430;10.586;2024-02-15T01:13:31;10.70;92.30
38183;DHT22;23991;52.430;10.586;2024-02-15T01:15:57;10.70;92.30
38183;DHT22;23991;52.430;10.586;2024-02-15T01:18:22;10.60;92.30
38183;DHT22;23991;52.430;10.586;2024-02-15T01:20:48;10.70;92.30
38183;DHT22;23991;52.430;10.586;2024-02-15T01:23:13;10.70;92.30
38183;DHT22;23991;52.430;10.586;2024-02-15T01:25:39;10.70;92.30
38183;DHT22;23991;52.430;10.586;2024-02-15T01:28:05;10.70;92.40
38183;DHT22;23991;52.430;10.586;2024-02-15T01:30:31;10.70;92.40
38183;DHT22;23991;52.430;10.586;2024-02-15T01:32:57;10.70;92.40
38183;DHT22;23991;52.430;10.586;2024-02-15T01:35:23;10.80;92.40
38183;DHT22;23991;52.430;10.586;2024-02-15T01:37:48;10.80;92.40
38183;DHT22;23991;52.430;10.586;2024-02-15T01:40:14;10.70;92.40
38183;DHT22;23991;52.430;10.586;2024-02-15T01:42:41;10.80;92.40
38183;DHT22;23991;52.430;10.586;2024-02-15T01:45:06;10.70;92.40
38183;DHT22;23991;52.430;10.586;2024-02-15T01:47:34;10.70;92.40
38183;DHT22;23991;52.430;10.586;2024-02-15T01:50:00;10.80;92.40
38183;DHT22;23991;52.430;10.586;2024-02-15T01:52:26;10.80;92.50
38183;DHT22;23991;52.430;10.586;2024-02-15T01:54:53;10.80;92.40
38183;DHT22;23991;52.430;10.586;2024-02-15T01:57:19;10.80;92.50
38183;DHT22;23991;52.430;10.586;2024-02-15T01:59:50;10.80;92.50
38183;DHT22;23991;52.430;10.586;2024-02-15T02:02:18;10.80;92.50
38183;DHT22;23991;52.430;10.586;2024-02-15T02:04:45;10.80;92.50
38183;DHT22;23991;52.430;10.586;2024-02-15T02:07:11;10.80;92.50
38183;DHT22;23991;52.430;10.586;2024-02-15T02:09:37;10.80;92.50
38183;DHT22;23991;52.430;10.586;2024-02-15T02:12:02;10.80;92.50
38183;DHT22;23991;52.430;10.586;2024-02-15T02:14:29;10.80;92.50
38183;DHT22;23991;52.430;10.586;2024-02-15T02:16:54;10.80;92.50
38183;DHT22;23991;52.430;10.586;2024-02-15T02:19:22;10.80;92.50
38183;DHT22;23991;52.430;10.586;2024-02-15T02:21:48;10.80;92.50
38183;DHT22;23991;52.430;10.586;2024-02-15T02:24:22;10.80;92.60
38183;DHT22;23991;52.430;10.586;2024-02-15T02:26:47;10.80;92.60
38183;DHT22;23991;52.430;10.586;2024-02-15T02:29:15;10.80;92.50
38183;DHT22;23991;52.430;10.586;2024-02-15T02:31:40;10.80;92.50
38183;DHT22;23991;52.430;10.586;2024-02-15T02:34:08;10.80;92.60
38183;DHT22;23991;52.430;10.586;2024-02-15T02:36:34;10.80;92.60
38183;DHT22;23991;52.430;10.586;2024-02-15T02:38:59;10.80;92.50
38183;DHT22;23991;52.430;10.586;2024-02-15T02:41:27;10.80;92.60
38183;DHT22;23991;52.430;10.586;2024-02-15T02:43:55;10.80;92.60
38183;DHT22;23991;52.430;10.586;2024-02-15T02:46:20;10.80;92.60
38183;DHT22;23991;52.430;10.586;2024-02-15T02:48:46;10.80;92.60
38183;DHT22;23991;52.430;10.586;2024-02-15T02:51:12;10.80;92.60
38183;DHT22;23991;52.430;10.586;2024-02-15T02:53:37;10.80;92.60
38183;DHT22;23991;52.430;10.586;2024-02-15T02:56:03;10.80;92.60
38183;DHT22;23991;52.430;10.586;2024-02-15T02:58:29;10.80;92.60
38183;DHT22;23991;52.430;10.586;2024-02-15T03:00:55;10.80;92.70
38183;DHT22;23991;52.430;10.586;2024-02-15T03:03:21;10.80;92.60
38183;DHT22;23991;52.430;10.586;2024-02-15T03:05:49;10.80;92.60
38183;DHT22;23991;52.430;10.586;2024-02-15T03:08:15;10.80;92.60
38183;DHT22;23991;52.430;10.586;2024-02-15T03:10:43;10.80;92.60
38183;DHT22;23991;52.430;10.586;2024-02-15T03:13:08;10.80;92.60
38183;DHT22;23991;52.430;10.586;2024-02-15T03:15:37;10.80;92.60
38183;DHT22;23991;52.430;10.586;2024-02-15T03:18:03;10.90;92.60
38183;DHT22;23991;52.430;10.586;2024-02-15T03:20:32;10.80;92.60
38183;DHT22;23991;52.430;10.586;2024-02-15T03:23:00;10.80;92.60
38183;DHT22;23991;52.430;10.586;2024-02-15T03:25:27;10.80;92.60
38183;DHT22;23991;52.430;10.586;2024-02-15T03:27:55;10.90;92.60
38183;DHT22;23991;52.430;10.586;2024-02-15T03:30:22;10.90;92.60
38183;DHT22;23991;52.430;10.586;2024-02-15T03:32:49;10.80;92.60
38183;DHT22;23991;52.430;10.586;2024-02-15T03:35:17;10.80;92.60
38183;DHT22;23991;52.430;10.586;2024-02-15T03:37:43;10.80;92.60
38183;DHT22;23991;52.430;10.586;2024-02-15T03:40:09;10.90;92.60
38183;DHT22;23991;52.430;10.586;2024-02-15T03:42:35;10.90;92.60
38183;DHT22;23991;52.430;10.586;2024-02-15T03:45:04;10.80;92.60
38183;DHT22;23991;52.430;10.586;2024-02-15T03:47:33;10.80;92.60
38183;DHT22;23991;52.430;10.586;2024-02-15T03:50:04;10.80;92.60
38183;DHT22;23991;52.430;10.586;2024-02-15T03:52:30;10.80;92.60
38183;DHT22;23991;52.430;10.586;2024-02-15T03:54:56;10.80;92.60
38183;DHT22;23991;52.430;10.586;2024-02-15T03:57:23;10.80;92.60
38183;DHT22;23991;52.430;10.586;2024-02-15T03:59:49;10.90;92.60
38183;DHT22;23991;52.430;10.586;2024-02-15T04:02:21;10.80;92.60
38183;DHT22;23991;52.430;10.586;2024-02-15T04:04:49;10.90;92.60
38183;DHT22;23991;52.430;10.586;2024-02-15T04:07:16;10.80;92.50
38183;DHT22;23991;52.430;10.586;2024-02-15T04:09:42;10.90;92.50
38183;DHT22;23991;52.430;10.586;2024-02-15T04:12:08;10.90;92.50
38183;DHT22;23991;52.430;10.586;2024-02-15T04:14:34;10.80;92.50
38183;DHT22;23991;52.430;10.586;2024-02-15T04:17:00;10.90;92.50
38183;DHT22;23991;52.430;10.586;2024-02-15T04:19:27;10.80;92.50
38183;DHT22;23991;52.430;10.586;2024-02-15T04:21:53;10.90;92.50
38183;DHT22;23991;52.430;10.586;2024-02-15T04:24:20;10.90;92.50
38183;DHT22;23991;52.430;10.586;2024-02-15T04:26:47;10.90;92.50
38183;DHT22;23991;52.430;10.586;2024-02-15T04:29:14;10.90;92.50
38183;DHT22;23991;52.430;10.586;2024-02-15T04:31:40;10.90;92.50
38183;DHT22;23991;52.430;10.586;2024-02-15T04:34:06;10.90;92.50
38183;DHT22;23991;52.430;10.586;2024-02-15T04:36:32;10.90;92.50
38183;DHT22;23991;52.430;10.586;2024-02-15T04:39:00;10.90;92.50
38183;DHT22;23991;52.430;10.586;2024-02-15T04:41:28;10.90;92.50
38183;DHT22;23991;52.430;10.586;2024-02-15T04:43:54;10.90;92.50
38183;DHT22;23991;52.430;10.586;2024-02-15T04:46:20;10.90;92.50
38183;DHT22;23991;52.430;10.586;2024-02-15T04:48:48;10.90;92.50
38183;DHT22;23991;52.430;10.586;2024-02-15T04:51:17;10.90;92.50
38183;DHT22;23991;52.430;10.586;2024-02-15T04:53:43;10.90;92.60
38183;DHT22;23991;52.430;10.586;2024-02-15T04:56:11;10.90;92.60
38183;DHT22;23991;52.430;10.586;2024-02-15T04:58:42;10.90;92.60
38183;DHT22;23991;52.430;10.586;2024-02-15T05:01:15;10.90;92.60
38183;DHT22;23991;52.430;10.586;2024-02-15T05:03:44;10.80;92.60
38183;DHT22;23991;52.430;10.586;2024-02-15T05:06:12;10.90;92.60
38183;DHT22;23991;52.430;10.586;2024-02-15T05:08:39;10.90;92.60
38183;DHT22;23991;52.430;10.586;2024-02-15T05:11:09;10.90;92.60
38183;DHT22;23991;52.430;10.586;2024-02-15T05:13:40;10.90;92.70
38183;DHT22;23991;52.430;10.586;2024-02-15T05:16:06;10.90;92.60
38183;DHT22;23991;52.430;10.586;2024-02-15T05:18:32;10.90;92.70
38183;DHT22;23991;52.430;10.586;2024-02-15T05:21:00;10.90;92.60
38183;DHT22;23991;52.430;10.586;2024-02-15T05:23:26;10.90;92.70
38183;DHT22;23991;52.430;10.586;2024-02-15T05:25:52;10.90;92.70
38183;DHT22;23991;52.430;10.586;2024-02-15T05:28:19;10.90;92.60
38183;DHT22;23991;52.430;10.586;2024-02-15T05:31:10;10.90;92.70
38183;DHT22;23991;52.430;10.586;2024-02-15T05:33:38;10.90;92.70
38183;DHT22;23991;52.430;10.586;2024-02-15T05:36:12;10.90;92.60
38183;DHT22;23991;52.430;10.586;2024-02-15T05:38:40;10.90;92.60
38183;DHT22;23991;52.430;10.586;2024-02-15T05:41:07;10.90;92.60
38183;DHT22;23991;52.430;10.586;2024-02-15T05:43:37;10.80;92.60
38183;DHT22;23991;52.430;10.586;2024-02-15T05:46:03;10.90;92.60
38183;DHT22;23991;52.430;10.586;2024-02-15T05:48:29;10.90;92.60
38183;DHT22;23991;52.430;10.586;2024-02-15T05:50:56;10.90;92.60
38183;DHT22;23991;52.430;10.586;2024-02-15T05:53:23;10.80;92.60
38183;DHT22;23991;52.430;10.586;2024-02-15T05:55:49;10.80;92.60
38183;DHT22;23991;52.430;10.586;2024-02-15T05:58:15;10.80;92.60
38183;DHT22;23991;52.430;10.586;2024-02-15T06:00:42;10.80;92.60
38183;DHT22;23991;52.430;10.586;2024-02-15T06:03:13;10.80;92.60
38183;DHT22;23991;52.430;10.586;2024-02-15T06:05:39;10.80;92.50
38183;DHT22;23991;52.430;10.586;2024-02-15T06:08:05;10.80;92.60
38183;DHT22;23991;52.430;10.586;2024-02-15T06:10:31;10.80;92.60
38183;DHT22;23991;52.430;10.586;2024-02-15T06:12:57;10.80;92.60
38183;DHT22;23991;52.430;10.586;2024-02-15T06:15:25;10.80;92.60
38183;DHT22;23991;52.430;10.586;2024-02-15T06:17:52;10.80;92.60
38183;DHT22;23991;52.430;10.586;2024-02-15T06:20:17;10.80;92.60
38183;DHT22;23991;52.430;10.586;2024-02-15T06:22:45;10.80;92.60
38183;DHT22;23991;52.430;10.586;2024-02-15T06:25:12;10.80;92.60
38183;DHT22;23991;52.430;10.586;2024-02-15T06:27:46;10.80;92.60
38183;DHT22;23991;52.430;10.586;2024-02-15T06:30:12;10.80;92.70
38183;DHT22;23991;52.430;10.586;2024-02-15T06:32:57;10.90;92.70
38183;DHT22;23991;52.430;10.586;2024-02-15T06:35:41;10.90;92.70
38183;DHT22;23991;52.430;10.586;2024-02-15T06:38:25;10.90;92.70
38183;DHT22;23991;52.430;10.586;2024-02-15T06:41:09;11.00;92.70
38183;DHT22;23991;52.430;10.586;2024-02-15T06:43:35;11.00;92.60
38183;DHT22;23991;52.430;10.586;2024-02-15T06:46:02;11.00;92.50
38183;DHT22;23991;52.430;10.586;2024-02-15T06:48:28;11.00;92.50
38183;DHT22;23991;52.430;10.586;2024-02-15T06:50:54;11.00;92.50
38183;DHT22;23991;52.430;10.586;2024-02-15T06:53:20;10.90;92.50
38183;DHT22;23991;52.430;10.586;2024-02-15T06:55:49;11.00;92.60
38183;DHT22;23991;52.430;10.586;2024-02-15T06:58:17;11.00;92.60
38183;DHT22;23991;52.430;10.586;2024-02-15T07:00:43;11.00;92.60
38183;DHT22;23991;52.430;10.586;2024-02-15T07:03:09;11.00;92.60
38183;DHT22;23991;52.430;10.586;2024-02-15T07:05:36;11.00;92.60
38183;DHT22;23991;52.430;10.586;2024-02-15T07:08:04;11.00;92.60
38183;DHT22;23991;52.430;10.586;2024-02-15T07:10:30;11.10;92.60
38183;DHT22;23991;52.430;10.586;2024-02-15T07:12:57;11.10;92.60
38183;DHT22;23991;52.430;10.586;2024-02-15T07:15:23;11.10;92.60
38183;DHT22;23991;52.430;10.586;2024-02-15T07:17:48;11.20;92.60
38183;DHT22;23991;52.430;10.586;2024-02-15T07:20:14;11.20;92.70
38183;DHT22;23991;52.430;10.586;2024-02-15T07:22:43;11.30;92.60
38183;DHT22;23991;52.430;10.586;2024-02-15T07:25:11;11.30;92.70
38183;DHT22;23991;52.430;10.586;2024-02-15T07:27:36;11.30;92.50
38183;DHT22;23991;52.430;10.586;2024-02-15T07:30:02;11.40;92.50
38183;DHT22;23991;52.430;10.586;2024-02-15T07:32:30;11.40;92.50
38183;DHT22;23991;52.430;10.586;2024-02-15T07:34:57;11.50;92.40
38183;DHT22;23991;52.430;10.586;2024-02-15T07:37:22;11.60;92.30
38183;DHT22;23991;52.430;10.586;2024-02-15T07:39:52;11.60;92.30
38183;DHT22;23991;52.430;10.586;2024-02-15T07:42:18;11.70;92.00
38183;DHT22;23991;52.430;10.586;2024-02-15T07:44:44;11.80;91.90
38183;DHT22;23991;52.430;10.586;2024-02-15T07:47:09;11.80;91.70
38183;DHT22;23991;52.430;10.586;2024-02-15T07:49:36;11.80;91.60
38183;DHT22;23991;52.430;10.586;2024-02-15T07:52:02;12.00;91.30
38183;DHT22;23991;52.430;10.586;2024-02-15T07:54:32;12.10;91.10
38183;DHT22;23991;52.430;10.586;2024-02-15T07:56:58;12.10;91.00
38183;DHT22;23991;52.430;10.586;2024-02-15T07:59:24;12.30;90.60
38183;DHT22;23991;52.430;10.586;2024-02-15T08:01:50;12.30;90.20
38183;DHT22;23991;52.430;10.586;2024-02-15T08:04:19;12.40;90.00
38183;DHT22;23991;52.430;10.586;2024-02-15T08:06:45;12.50;89.70
38183;DHT22;23991;52.430;10.586;2024-02-15T08:09:10;12.50;89.00
38183;DHT22;23991;52.430;10.586;2024-02-15T08:11:42;12.60;88.70
38183;DHT22;23991;52.430;10.586;2024-02-15T08:14:07;12.60;88.50
38183;DHT22;23991;52.430;10.586;2024-02-15T08:16:36;12.70;88.20
38183;DHT22;23991;52.430;10.586;2024-02-15T08:19:03;12.80;87.90
38183;DHT22;23991;52.430;10.586;2024-02-15T08:21:31;12.90;87.70
38183;DHT22;23991;52.430;10.586;2024-02-15T08:24:02;12.90;87.30
38183;DHT22;23991;52.430;10.586;2024-02-15T08:26:36;13.00;87.10
38183;DHT22;23991;52.430;10.586;2024-02-15T08:29:03;13.10;86.40
38183;DHT22;23991;52.430;10.586;2024-02-15T08:31:29;13.20;86.10
38183;DHT22;23991;52.430;10.586;2024-02-15T08:33:59;13.20;85.70
38183;DHT22;23991;52.430;10.586;2024-02-15T08:36:25;13.30;85.80
38183;DHT22;23991;52.430;10.586;2024-02-15T08:38:51;13.40;85.20
38183;DHT22;23991;52.430;10.586;2024-02-15T08:41:17;13.40;84.70
38183;DHT22;23991;52.430;10.586;2024-02-15T08:43:46;13.40;84.50
38183;DHT22;23991;52.430;10.586;2024-02-15T08:46:14;13.50;84.10
38183;DHT22;23991;52.430;10.586;2024-02-15T08:48:40;13.70;83.90
38183;DHT22;23991;52.430;10.586;2024-02-15T08:51:06;13.80;83.30
38183;DHT22;23991;52.430;10.586;2024-02-15T08:53:34;13.80;83.00
38183;DHT22;23991;52.430;10.586;2024-02-15T08:56:02;13.90;82.80
38183;DHT22;23991;52.430;10.586;2024-02-15T08:58:28;14.00;82.20
38183;DHT22;23991;52.430;10.586;2024-02-15T09:00:55;14.20;82.10
38183;DHT22;23991;52.430;10.586;2024-02-15T09:03:21;14.30;81.40
38183;DHT22;23991;52.430;10.586;2024-02-15T09:05:47;14.40;81.00
38183;DHT22;23991;52.430;10.586;2024-02-15T09:08:13;14.50;80.40
38183;DHT22;23991;52.430;10.586;2024-02-15T09:10:39;14.50;80.20
38183;DHT22;23991;52.430;10.586;2024-02-15T09:13:05;14.60;80.20
38183;DHT22;23991;52.430;10.586;2024-02-15T09:15:32;14.80;79.70
38183;DHT22;23991;52.430;10.586;2024-02-15T09:17:57;14.90;78.90
38183;DHT22;23991;52.430;10.586;2024-02-15T09:20:23;15.20;78.50
38183;DHT22;23991;52.430;10.586;2024-02-15T09:22:54;15.30;77.50
38183;DHT22;23991;52.430;10.586;2024-02-15T09:25:21;15.40;77.10
38183;DHT22;23991;52.430;10.586;2024-02-15T09:27:50;15.60;77.10
38183;DHT22;23991;52.430;10.586;2024-02-15T09:30:16;15.80;76.10
38183;DHT22;23991;52.430;10.586;2024-02-15T09:32:42;16.00;75.20
38183;DHT22;23991;52.430;10.586;2024-02-15T09:35:09;16.00;74.70
38183;DHT22;23991;52.430;10.586;2024-02-15T09:37:37;16.20;74.40
38183;DHT22;23991;52.430;10.586;2024-02-15T09:40:08;16.30;73.90
38183;DHT22;23991;52.430;10.586;2024-02-15T09:42:35;16.30;73.80
38183;DHT22;23991;52.430;10.586;2024-02-15T09:45:02;16.30;73.80
38183;DHT22;23991;52.430;10.586;2024-02-15T09:47:34;16.40;73.50
38183;DHT22;23991;52.430;10.586;2024-02-15T09:50:01;16.50;72.70
38183;DHT22;23991;52.430;10.586;2024-02-15T09:52:29;16.60;72.60
38183;DHT22;23991;52.430;10.586;2024-02-15T09:54:58;16.70;72.30
38183;DHT22;23991;52.430;10.586;2024-02-15T09:57:24;16.80;71.90
38183;DHT22;23991;52.430;10.586;2024-02-15T09:59:53;16.80;71.70
38183;DHT22;23991;52.430;10.586;2024-02-15T10:02:19;16.80;71.90
38183;DHT22;23991;52.430;10.586;2024-02-15T10:04:46;17.20;70.90
38183;DHT22;23991;52.430;10.586;2024-02-15T10:07:13;17.30;70.10
38183;DHT22;23991;52.430;10.586;2024-02-15T10:09:39;17.60;69.50
38183;DHT22;23991;52.430;10.586;2024-02-15T10:12:08;17.60;68.80
38183;DHT22;23991;52.430;10.586;2024-02-15T10:14:35;17.70;68.80
38183;DHT22;23991;52.430;10.586;2024-02-15T10:17:06;17.80;68.20
38183;DHT22;23991;52.430;10.586;2024-02-15T10:19:35;17.80;67.80
38183;DHT22;23991;52.430;10.586;2024-02-15T10:22:06;18.00;67.30
38183;DHT22;23991;52.430;10.586;2024-02-15T10:24:32;18.20;67.00
38183;DHT22;23991;52.430;10.586;2024-02-15T10:27:02;18.30;66.70
38183;DHT22;23991;52.430;10.586;2024-02-15T10:29:36;18.30;66.30
38183;DHT22;23991;52.430;10.586;2024-02-15T10:32:03;18.30;66.10
38183;DHT22;23991;52.430;10.586;2024-02-15T10:34:29;18.40;65.60
38183;DHT22;23991;52.430;10.586;2024-02-15T10:37:10;18.30;66.50
38183;DHT22;23991;52.430;10.586;2024-02-15T10:39:37;18.40;65.60
38183;DHT22;23991;52.430;10.586;2024-02-15T10:42:03;18.30;66.00
38183;DHT22;23991;52.430;10.586;2024-02-15T10:44:31;18.30;66.30
38183;DHT22;23991;52.430;10.586;2024-02-15T10:46:59;18.50;65.30
38183;DHT22;23991;52.430;10.586;2024-02-15T10:49:26;18.40;66.20
38183;DHT22;23991;52.430;10.586;2024-02-15T10:52:00;18.50;65.80
38183;DHT22;23991;52.430;10.586;2024-02-15T10:54:52;18.50;65.50
38183;DHT22;23991;52.430;10.586;2024-02-15T10:57:22;18.80;64.50
38183;DHT22;23991;52.430;10.586;2024-02-15T10:59:57;18.80;63.80
38183;DHT22;23991;52.430;10.586;2024-02-15T11:02:30;18.90;63.60
38183;DHT22;23991;52.430;10.586;2024-02-15T11:05:08;18.80;63.30
38183;DHT22;23991;52.430;10.586;2024-02-15T11:07:37;18.80;63.20
38183;DHT22;23991;52.430;10.586;2024-02-15T11:10:05;18.60;63.90
38183;DHT22;23991;52.430;10.586;2024-02-15T11:12:34;18.60;63.70
38183;DHT22;23991;52.430;10.586;2024-02-15T11:15:00;18.50;64.40
38183;DHT22;23991;52.430;10.586;2024-02-15T11:20:09;18.50;64.50
38183;DHT22;23991;52.430;10.586;2024-02-15T11:22:38;18.40;64.40
38183;DHT22;23991;52.430;10.586;2024-02-15T11:25:08;18.40;64.70
38183;DHT22;23991;52.430;10.586;2024-02-15T11:27:40;18.50;64.40
38183;DHT22;23991;52.430;10.586;2024-02-15T11:30:07;18.40;63.90
38183;DHT22;23991;52.430;10.586;2024-02-15T11:32:39;18.40;64.50
38183;DHT22;23991;52.430;10.586;2024-02-15T11:35:19;18.50;64.30
38183;DHT22;23991;52.430;10.586;2024-02-15T11:43:10;18.70;63.30
38183;DHT22;23991;52.430;10.586;2024-02-15T11:45:36;18.60;63.80
38183;DHT22;23991;52.430;10.586;2024-02-15T11:48:14;18.50;63.80
38183;DHT22;23991;52.430;10.586;2024-02-15T11:50:41;18.50;64.30
38183;DHT22;23991;52.430;10.586;2024-02-15T11:53:08;18.40;64.50
38183;DHT22;23991;52.430;10.586;2024-02-15T11:55:35;18.50;64.50
38183;DHT22;23991;52.430;10.586;2024-02-15T11:58:03;18.60;64.20
38183;DHT22;23991;52.430;10.586;2024-02-15T12:00:49;18.50;64.80
38183;DHT22;23991;52.430;10.586;2024-02-15T12:03:33;18.60;64.60
38183;DHT22;23991;52.430;10.586;2024-02-15T12:06:17;18.70;64.80
38183;DHT22;23991;52.430;10.586;2024-02-15T12:09:02;18.60;64.30
38183;DHT22;23991;52.430;10.586;2024-02-15T12:11:46;18.60;64.80
38183;DHT22;23991;52.430;10.586;2024-02-15T12:14:33;18.70;65.00
38183;DHT22;23991;52.430;10.586;2024-02-15T12:17:17;18.80;65.60
38183;DHT22;23991;52.430;10.586;2024-02-15T12:20:03;18.70;65.80
38183;DHT22;23991;52.430;10.586;2024-02-15T12:22:40;18.80;65.50
38183;DHT22;23991;52.430;10.586;2024-02-15T12:25:06;18.60;66.40
38183;DHT22;23991;52.430;10.586;2024-02-15T12:27:43;18.60;66.60
38183;DHT22;23991;52.430;10.586;2024-02-15T12:30:17;18.80;65.90
38183;DHT22;23991;52.430;10.586;2024-02-15T12:32:51;18.60;65.90
38183;DHT22;23991;52.430;10.586;2024-02-15T12:35:21;18.30;67.10
38183;DHT22;23991;52.430;10.586;2024-02-15T12:38:01;18.20;67.90
38183;DHT22;23991;52.430;10.586;2024-02-15T12:40:32;18.30;67.60
38183;DHT22;23991;52.430;10.586;2024-02-15T12:42:58;18.30;67.30
38183;DHT22;23991;52.430;10.586;2024-02-15T12:45:26;18.10;67.70
38183;DHT22;23991;52.430;10.586;2024-02-15T12:47:55;18.00;68.40
38183;DHT22;23991;52.430;10.586;2024-02-15T12:50:30;18.10;67.90
38183;DHT22;23991;52.430;10.586;2024-02-15T12:52:56;18.00;68.40
38183;DHT22;23991;52.430;10.586;2024-02-15T12:55:29;18.10;67.80
38183;DHT22;23991;52.430;10.586;2024-02-15T12:57:56;18.10;67.90
38183;DHT22;23991;52.430;10.586;2024-02-15T13:00:24;18.00;67.80
38183;DHT22;23991;52.430;10.586;2024-02-15T13:02:58;18.10;68.20
38183;DHT22;23991;52.430;10.586;2024-02-15T13:05:26;18.30;67.50
38183;DHT22;23991;52.430;10.586;2024-02-15T13:07:54;18.20;67.70
38183;DHT22;23991;52.430;10.586;2024-02-15T13:10:30;18.20;68.00
38183;DHT22;23991;52.430;10.586;2024-02-15T13:12:57;18.30;67.30
38183;DHT22;23991;52.430;10.586;2024-02-15T13:15:23;18.30;67.50
38183;DHT22;23991;52.430;10.586;2024-02-15T13:17:53;18.20;67.60
38183;DHT22;23991;52.430;10.586;2024-02-15T13:20:22;18.30;67.70
38183;DHT22;23991;52.430;10.586;2024-02-15T13:23:02;18.30;67.50
38183;DHT22;23991;52.430;10.586;2024-02-15T13:25:36;18.30;67.30
38183;DHT22;23991;52.430;10.586;2024-02-15T13:28:03;18.40;67.30
38183;DHT22;23991;52.430;10.586;2024-02-15T13:30:29;18.40;67.50
38183;DHT22;23991;52.430;10.586;2024-02-15T13:32:55;18.40;67.70
38183;DHT22;23991;52.430;10.586;2024-02-15T13:35:22;18.50;67.30
38183;DHT22;23991;52.430;10.586;2024-02-15T13:37:50;18.40;67.20
38183;DHT22;23991;52.430;10.586;2024-02-15T13:40:17;18.30;67.80
38183;DHT22;23991;52.430;10.586;2024-02-15T13:42:46;18.50;67.20
38183;DHT22;23991;52.430;10.586;2024-02-15T13:45:16;18.50;67.50
38183;DHT22;23991;52.430;10.586;2024-02-15T13:47:44;18.60;67.60
38183;DHT22;23991;52.430;10.586;2024-02-15T13:50:11;18.70;66.90
38183;DHT22;23991;52.430;10.586;2024-02-15T13:52:49;18.60;67.30
38183;DHT22;23991;52.430;10.586;2024-02-15T13:55:16;18.60;67.20
38183;DHT22;23991;52.430;10.586;2024-02-15T13:57:43;18.60;67.10
38183;DHT22;23991;52.430;10.586;2024-02-15T14:00:12;18.50;66.30
38183;DHT22;23991;52.430;10.586;2024-02-15T14:02:40;18.50;67.10
38183;DHT22;23991;52.430;10.586;2024-02-15T14:05:10;18.60;66.70
38183;DHT22;23991;52.430;10.586;2024-02-15T14:07:39;18.80;65.80
38183;DHT22;23991;52.430;10.586;2024-02-15T14:10:06;18.80;65.20
38183;DHT22;23991;52.430;10.586;2024-02-15T14:12:33;18.70;65.80
38183;DHT22;23991;52.430;10.586;2024-02-15T14:15:00;18.60;65.80
38183;DHT22;23991;52.430;10.586;2024-02-15T14:17:25;18.50;66.40
38183;DHT22;23991;52.430;10.586;2024-02-15T14:19:51;18.70;66.20
38183;DHT22;23991;52.430;10.586;2024-02-15T14:22:16;18.60;65.80
38183;DHT22;23991;52.430;10.586;2024-02-15T14:24:42;18.50;66.10
38183;DHT22;23991;52.430;10.586;2024-02-15T14:27:11;18.50;66.00
38183;DHT22;23991;52.430;10.586;2024-02-15T14:29:40;18.30;66.50
38183;DHT22;23991;52.430;10.586;2024-02-15T14:32:25;18.30;67.30
38183;DHT22;23991;52.430;10.586;2024-02-15T14:35:09;18.20;66.80
38183;DHT22;23991;52.430;10.586;2024-02-15T14:37:36;18.30;66.60
38183;DHT22;23991;52.430;10.586;2024-02-15T14:40:02;18.20;67.20
38183;DHT22;23991;52.430;10.586;2024-02-15T14:42:28;18.30;66.90
38183;DHT22;23991;52.430;10.586;2024-02-15T14:44:56;18.40;66.50
38183;DHT22;23991;52.430;10.586;2024-02-15T14:47:22;18.50;66.50
38183;DHT22;23991;52.430;10.586;2024-02-15T14:49:48;18.60;66.10
38183;DHT22;23991;52.430;10.586;2024-02-15T14:52:13;18.70;65.60
38183;DHT22;23991;52.430;10.586;2024-02-15T14:54:39;18.70;64.80
38183;DHT22;23991;52.430;10.586;2024-02-15T14:57:05;18.70;64.90
38183;DHT22;23991;52.430;10.586;2024-02-15T14:59:32;18.80;64.40
38183;DHT22;23991;52.430;10.586;2024-02-15T15:01:59;18.80;64.70
38183;DHT22;23991;52.430;10.586;2024-02-15T15:04:37;18.80;64.70
38183;DHT22;23991;52.430;10.586;2024-02-15T15:07:22;18.80;64.60
38183;DHT22;23991;52.430;10.586;2024-02-15T15:10:07;18.80;64.20
38183;DHT22;23991;52.430;10.586;2024-02-15T15:12:51;18.70;63.90
38183;DHT22;23991;52.430;10.586;2024-02-15T15:15:16;18.60;64.40
38183;DHT22;23991;52.430;10.586;2024-02-15T15:17:45;18.50;64.10
38183;DHT22;23991;52.430;10.586;2024-02-15T15:20:11;18.40;64.70
38183;DHT22;23991;52.430;10.586;2024-02-15T15:22:37;18.50;64.60
38183;DHT22;23991;52.430;10.586;2024-02-15T15:25:03;18.60;63.90
38183;DHT22;23991;52.430;10.586;2024-02-15T15:27:37;18.60;63.80
38183;DHT22;23991;52.430;10.586;2024-02-15T15:30:06;18.50;63.50